createdAt,value
2018-05-07T00:00:35.233Z,5.43
2018-05-07T00:03:04.207Z,5.37
2018-05-07T00:05:33.202Z,6.10
2018-05-07T00:08:03.435Z,5.57
2018-05-07T00:10:31.697Z,5.07
2018-05-07T00:13:00.009Z,5.37
2018-05-07T00:15:28.327Z,5.70
2018-05-07T00:17:57.567Z,6.00
2018-05-07T00:20:25.855Z,6.10
2018-05-07T00:22:55.728Z,5.93
2018-05-07T00:25:24.765Z,6.77
2018-05-07T00:27:53.829Z,5.90
2018-05-07T00:30:23.666Z,5.60
2018-05-07T00:32:52.734Z,5.67
2018-05-07T00:35:21.539Z,7.00
2018-05-07T00:37:50.231Z,6.13
2018-05-07T00:40:20.032Z,6.47
2018-05-07T00:42:49.814Z,5.80
2018-05-07T00:45:18.130Z,6.60
2018-05-07T00:47:46.660Z,5.60
2018-05-07T00:50:16.214Z,6.47
2018-05-07T00:52:44.818Z,5.97
2018-05-07T00:55:21.927Z,6.23
2018-05-07T00:57:50.270Z,6.27
2018-05-07T01:00:18.559Z,5.87
2018-05-07T01:02:47.746Z,6.33
2018-05-07T01:05:18.169Z,6.10
2018-05-07T01:07:47.472Z,5.17
2018-05-07T01:10:16.872Z,5.23
2018-05-07T01:12:45.921Z,6.43
2018-05-07T01:15:14.897Z,5.53
2018-05-07T01:17:45.258Z,6.53
2018-05-07T01:20:14.928Z,5.90
2018-05-07T01:22:43.301Z,6.10
2018-05-07T01:25:12.608Z,6.57
2018-05-07T01:27:40.887Z,5.33
2018-05-07T01:30:09.475Z,4.70
2018-05-07T01:32:38.882Z,4.17
2018-05-07T01:35:08.892Z,4.40
2018-05-07T01:37:38.834Z,3.97
2018-05-07T01:40:09.035Z,3.50
2018-05-07T01:42:38.486Z,3.90
2018-05-07T01:45:08.179Z,4.00
2018-05-07T01:47:36.462Z,5.17
2018-05-07T01:50:04.897Z,5.03
2018-05-07T01:52:33.302Z,4.90
2018-05-07T01:55:02.509Z,5.60
2018-05-07T01:57:31.595Z,4.30
2018-05-07T01:59:59.898Z,5.60
2018-05-07T02:02:29.142Z,4.70
2018-05-07T02:04:57.457Z,5.40
2018-05-07T02:07:25.914Z,6.73
2018-05-07T02:09:55.474Z,6.30
2018-05-07T02:12:26.383Z,6.00
2018-05-07T02:14:54.671Z,6.30
2018-05-07T02:17:23.546Z,5.53
2018-05-07T02:19:51.930Z,4.53
2018-05-07T02:22:20.965Z,2.93
2018-05-07T02:24:50.409Z,4.00
2018-05-07T02:27:19.210Z,4.03
2018-05-07T02:29:49.258Z,4.83
2018-05-07T02:32:17.731Z,5.43
2018-05-07T02:34:46.006Z,5.27
2018-05-07T02:37:15.103Z,4.33
2018-05-07T02:39:43.599Z,3.80
2018-05-07T02:42:12.015Z,3.67
2018-05-07T02:44:40.702Z,4.30
2018-05-07T02:47:09.010Z,5.53
2018-05-07T02:49:37.967Z,4.90
2018-05-07T02:52:06.250Z,5.50
2018-05-07T02:54:35.262Z,5.60
2018-05-07T02:57:04.134Z,5.53
2018-05-07T02:59:32.969Z,5.50
2018-05-07T03:02:02.763Z,4.70
2018-05-07T03:04:31.310Z,4.00
2018-05-07T03:07:00.459Z,3.97
2018-05-07T03:09:29.020Z,5.40
2018-05-07T03:11:57.562Z,4.63
2018-05-07T03:14:26.739Z,4.67
2018-05-07T03:16:56.874Z,3.40
2018-05-07T03:19:25.669Z,3.37
2018-05-07T03:21:57.170Z,4.43
2018-05-07T03:24:28.154Z,6.87
2018-05-07T03:26:56.603Z,4.97
2018-05-07T03:29:25.351Z,4.70
2018-05-07T03:31:55.239Z,4.30
2018-05-07T03:34:25.662Z,3.80
2018-05-07T03:36:53.890Z,3.50
2018-05-07T03:39:23.304Z,2.97
2018-05-07T03:41:52.317Z,3.23
2018-05-07T03:44:20.679Z,2.80
2018-05-07T03:46:49.682Z,2.53
2018-05-07T03:49:18.579Z,2.17
2018-05-07T03:51:46.926Z,1.40
2018-05-07T03:54:16.059Z,1.80
2018-05-07T03:56:45.290Z,2.20
2018-05-07T03:59:15.047Z,2.30
2018-05-07T04:01:44.155Z,1.90
2018-05-07T04:04:12.419Z,2.20
2018-05-07T04:06:41.395Z,2.80
2018-05-07T04:09:11.278Z,2.37
2018-05-07T04:11:39.962Z,2.23
2018-05-07T04:14:08.242Z,3.10
2018-05-07T04:16:54.299Z,2.50
2018-05-07T04:19:40.525Z,2.47
2018-05-07T04:22:26.779Z,2.70
2018-05-07T04:24:55.388Z,2.50
2018-05-07T04:27:24.378Z,3.20
2018-05-07T04:29:54.061Z,4.13
2018-05-07T04:32:24.588Z,4.00
2018-05-07T04:34:54.427Z,3.90
2018-05-07T04:37:24.252Z,4.67
2018-05-07T04:39:52.512Z,4.17
2018-05-07T04:42:20.791Z,3.37
2018-05-07T04:44:49.094Z,4.40
2018-05-07T04:47:17.462Z,5.33
2018-05-07T04:49:46.018Z,4.83
2018-05-07T04:52:14.994Z,4.07
2018-05-07T04:54:44.814Z,4.50
2018-05-07T04:57:15.358Z,4.90
2018-05-07T04:59:44.278Z,5.13
2018-05-07T05:02:12.550Z,4.73
2018-05-07T05:04:40.822Z,5.03
2018-05-07T05:07:09.337Z,5.17
2018-05-07T05:09:37.614Z,5.37
2018-05-07T05:12:06.442Z,5.43
2018-05-07T05:14:36.915Z,5.13
2018-05-07T05:17:05.189Z,5.97
2018-05-07T05:19:34.200Z,6.07
2018-05-07T05:22:02.579Z,5.20
2018-05-07T05:24:31.694Z,5.57
2018-05-07T05:27:00.746Z,5.03
2018-05-07T05:29:29.662Z,3.53
2018-05-07T05:32:00.296Z,4.40
2018-05-07T05:34:28.585Z,4.10
2018-05-07T05:36:56.929Z,4.00
2018-05-07T05:39:25.530Z,4.10
2018-05-07T05:41:53.791Z,3.63
2018-05-07T05:44:22.386Z,5.57
2018-05-07T05:46:50.778Z,4.40
2018-05-07T05:49:19.070Z,3.87
2018-05-07T05:51:47.334Z,3.63
2018-05-07T05:54:16.415Z,3.57
2018-05-07T05:56:44.889Z,4.93
2018-05-07T05:59:13.851Z,4.43
2018-05-07T06:01:43.373Z,5.23
2018-05-07T06:04:11.679Z,3.70
2018-05-07T06:06:40.080Z,4.47
2018-05-07T06:09:08.786Z,4.53
2018-05-07T06:11:39.158Z,4.50
2018-05-07T06:14:08.338Z,4.50
2018-05-07T06:16:37.974Z,3.83
2018-05-07T06:19:06.258Z,4.20
2018-05-07T06:21:34.527Z,4.50
2018-05-07T06:24:02.809Z,4.43
2018-05-07T06:26:31.183Z,4.43
2018-05-07T06:29:00.282Z,4.50
2018-05-07T06:31:29.166Z,4.83
2018-05-07T06:34:00.099Z,3.70
2018-05-07T06:36:28.507Z,3.63
2018-05-07T06:38:56.786Z,3.80
2018-05-07T06:41:26.298Z,3.30
2018-05-07T06:43:54.603Z,4.20
2018-05-07T06:46:24.084Z,3.33
2018-05-07T06:48:53.105Z,3.60
2018-05-07T06:51:21.774Z,3.97
2018-05-07T06:53:50.061Z,3.73
2018-05-07T06:56:18.442Z,3.50
2018-05-07T06:58:47.181Z,4.43
2018-05-07T07:01:16.093Z,3.27
2018-05-07T07:03:44.458Z,3.60
2018-05-07T07:06:12.870Z,3.27
2018-05-07T07:08:41.899Z,3.87
2018-05-07T07:11:10.659Z,2.87
2018-05-07T07:13:38.960Z,3.40
2018-05-07T07:16:08.183Z,4.43
2018-05-07T07:18:37.235Z,2.87
2018-05-07T07:21:07.820Z,3.57
2018-05-07T07:23:37.450Z,3.57
2018-05-07T07:26:05.734Z,3.00
2018-05-07T07:28:35.412Z,2.90
2018-05-07T07:31:05.390Z,3.03
2018-05-07T07:33:35.274Z,3.30
2018-05-07T07:36:03.550Z,2.27
2018-05-07T07:38:31.918Z,2.80
2018-05-07T07:41:01.333Z,2.70
2018-05-07T07:43:30.026Z,3.33
2018-05-07T07:45:58.902Z,3.37
2018-05-07T07:48:27.616Z,2.77
2018-05-07T07:50:57.309Z,2.40
2018-05-07T07:53:26.168Z,2.57
2018-05-07T07:55:56.076Z,2.20
2018-05-07T07:58:25.335Z,2.80
2018-05-07T08:00:54.411Z,1.93
2018-05-07T08:03:22.922Z,2.70
2018-05-07T08:05:52.127Z,2.07
2018-05-07T08:08:20.995Z,1.90
2018-05-07T08:10:49.479Z,2.17
2018-05-07T08:13:17.950Z,2.30
2018-05-07T08:15:46.232Z,1.60
2018-05-07T08:18:15.127Z,2.27
2018-05-07T08:20:43.407Z,2.20
2018-05-07T08:23:13.612Z,4.43
2018-05-07T08:25:42.119Z,1.90
2018-05-07T08:28:10.910Z,2.07
2018-05-07T08:30:39.190Z,1.90
2018-05-07T08:33:09.056Z,2.33
2018-05-07T08:35:39.305Z,2.03
2018-05-07T08:38:09.142Z,2.23
2018-05-07T08:40:37.419Z,1.83
2018-05-07T08:43:06.270Z,2.20
2018-05-07T08:45:34.599Z,1.70
2018-05-07T08:48:03.643Z,1.90
2018-05-07T08:50:32.890Z,2.07
2018-05-07T08:53:01.333Z,2.10
2018-05-07T08:55:30.271Z,2.53
2018-05-07T08:57:59.079Z,2.50
2018-05-07T09:00:28.229Z,1.80
2018-05-07T09:02:57.231Z,1.77
2018-05-07T09:05:25.803Z,1.80
2018-05-07T09:07:54.091Z,2.30
2018-05-07T09:10:24.609Z,2.27
2018-05-07T09:12:53.983Z,2.00
2018-05-07T09:15:23.013Z,1.67
2018-05-07T09:17:51.582Z,2.00
2018-05-07T09:20:19.886Z,1.80
2018-05-07T09:22:48.972Z,1.77
2018-05-07T09:25:18.386Z,1.80
2018-05-07T09:27:46.678Z,1.80
2018-05-07T09:30:16.299Z,1.57
2018-05-07T09:32:44.703Z,1.43
2018-05-07T09:35:13.983Z,1.83
2018-05-07T09:37:43.041Z,1.73
2018-05-07T09:40:11.423Z,2.30
2018-05-07T09:42:39.692Z,1.70
2018-05-07T09:45:08.122Z,1.40
2018-05-07T09:47:37.978Z,1.90
2018-05-07T09:50:06.842Z,1.70
2018-05-07T09:52:35.733Z,1.37
2018-05-07T09:55:04.938Z,2.30
2018-05-07T09:57:34.829Z,2.07
2018-05-07T10:00:03.912Z,2.10
2018-05-07T10:02:32.243Z,1.70
2018-05-07T10:05:01.272Z,2.20
2018-05-07T10:07:29.567Z,1.90
2018-05-07T10:09:58.840Z,2.00
2018-05-07T10:12:27.112Z,2.00
2018-05-07T10:14:55.399Z,2.03
2018-05-07T10:17:23.715Z,1.90
2018-05-07T10:19:56.351Z,1.97
2018-05-07T10:22:25.207Z,1.70
2018-05-07T10:24:55.831Z,1.50
2018-05-07T10:27:24.975Z,1.93
2018-05-07T10:29:53.383Z,2.47
2018-05-07T10:32:22.679Z,1.53
2018-05-07T10:34:51.231Z,1.60
2018-05-07T10:37:19.633Z,1.47
2018-05-07T10:39:48.634Z,1.83
2018-05-07T10:42:17.271Z,1.40
2018-05-07T10:44:47.144Z,1.80
2018-05-07T10:47:15.464Z,1.30
2018-05-07T10:49:44.488Z,1.60
2018-05-07T10:52:13.202Z,1.17
2018-05-07T10:54:41.502Z,1.20
2018-05-07T10:57:09.780Z,1.73
2018-05-07T10:59:38.814Z,1.53
2018-05-07T11:02:07.870Z,1.37
2018-05-07T11:04:37.622Z,1.60
2018-05-07T11:07:05.907Z,1.10
2018-05-07T11:09:34.210Z,1.63
2018-05-07T11:12:03.131Z,1.53
2018-05-07T11:14:32.827Z,1.50
2018-05-07T11:17:01.907Z,1.43
2018-05-07T11:19:30.191Z,1.30
2018-05-07T11:21:58.583Z,1.90
2018-05-07T11:24:27.987Z,1.40
2018-05-07T11:26:56.341Z,1.23
2018-05-07T11:29:24.618Z,2.10
2018-05-07T11:31:55.094Z,1.40
2018-05-07T11:34:24.461Z,1.10
2018-05-07T11:36:52.843Z,1.47
2018-05-07T11:39:21.121Z,1.53
2018-05-07T11:41:49.490Z,1.20
2018-05-07T11:44:18.082Z,1.50
2018-05-07T11:46:46.350Z,1.37
2018-05-07T11:49:15.034Z,1.27
2018-05-07T11:51:43.981Z,1.60
2018-05-07T11:54:12.740Z,1.23
2018-05-07T11:56:41.051Z,1.40
2018-05-07T11:59:10.120Z,1.20
2018-05-07T12:01:38.883Z,1.20
2018-05-07T12:04:07.167Z,1.50
2018-05-07T12:06:35.446Z,1.30
2018-05-07T12:09:03.945Z,1.20
2018-05-07T12:11:33.044Z,1.20
2018-05-07T12:14:01.931Z,1.30
2018-05-07T12:16:30.297Z,1.33
2018-05-07T12:18:58.683Z,1.33
2018-05-07T12:21:26.950Z,1.23
2018-05-07T12:23:56.930Z,1.47
2018-05-07T12:26:26.023Z,2.00
2018-05-07T12:28:55.087Z,1.47
2018-05-07T12:31:23.695Z,1.37
2018-05-07T12:33:52.824Z,1.70
2018-05-07T12:36:21.659Z,1.60
2018-05-07T12:38:51.295Z,1.40
2018-05-07T12:41:21.071Z,1.63
2018-05-07T12:43:49.903Z,1.40
2018-05-07T12:46:18.960Z,1.40
2018-05-07T12:48:47.243Z,1.50
2018-05-07T12:51:16.834Z,1.73
2018-05-07T12:53:45.198Z,1.67
2018-05-07T12:56:13.478Z,1.87
2018-05-07T12:58:41.901Z,1.60
2018-05-07T13:01:11.143Z,1.80
2018-05-07T13:03:40.207Z,1.13
2018-05-07T13:06:08.815Z,1.37
2018-05-07T13:08:37.895Z,1.57
2018-05-07T13:11:06.937Z,2.30
2018-05-07T13:13:36.767Z,1.67
2018-05-07T13:16:05.781Z,2.17
2018-05-07T13:18:35.059Z,1.73
2018-05-07T13:21:03.573Z,1.83
2018-05-07T13:23:33.246Z,2.10
2018-05-07T13:26:01.534Z,1.90
2018-05-07T13:28:30.683Z,1.90
2018-05-07T13:30:59.804Z,2.07
2018-05-07T13:33:28.070Z,1.47
2018-05-07T13:35:57.724Z,1.87
2018-05-07T13:38:26.864Z,1.70
2018-05-07T13:40:55.993Z,2.00
2018-05-07T13:43:25.411Z,1.40
2018-05-07T13:45:54.433Z,1.70
2018-05-07T13:48:23.365Z,1.80
2018-05-07T13:50:52.898Z,1.83
2018-05-07T13:53:22.791Z,2.13
2018-05-07T13:55:51.189Z,1.80
2018-05-07T13:58:20.663Z,1.60
2018-05-07T14:00:49.841Z,1.73
2018-05-07T14:03:19.183Z,1.20
2018-05-07T14:05:47.469Z,1.67
2018-05-07T14:08:17.391Z,1.70
2018-05-07T14:10:46.035Z,1.70
2018-05-07T14:13:15.715Z,1.43
2018-05-07T14:15:44.083Z,1.90
2018-05-07T14:18:13.156Z,1.80
2018-05-07T14:20:41.483Z,2.00
2018-05-07T14:23:11.298Z,1.27
2018-05-07T14:25:39.574Z,1.03
2018-05-07T14:28:08.484Z,1.80
2018-05-07T14:30:38.646Z,1.33
2018-05-07T14:33:08.300Z,1.50
2018-05-07T14:35:38.572Z,2.00
2018-05-07T14:38:06.871Z,1.90
2018-05-07T14:40:35.863Z,1.57
2018-05-07T14:43:04.450Z,1.73
2018-05-07T14:45:32.738Z,1.87
2018-05-07T14:48:01.336Z,1.63
2018-05-07T14:50:30.043Z,2.00
2018-05-07T14:53:00.162Z,1.90
2018-05-07T14:55:29.634Z,1.37
2018-05-07T14:57:58.101Z,1.80
2018-05-07T15:00:26.416Z,1.57
2018-05-07T15:02:55.631Z,2.00
2018-05-07T15:05:25.443Z,1.97
2018-05-07T15:07:53.769Z,1.87
2018-05-07T15:10:22.051Z,1.40
2018-05-07T15:12:50.692Z,1.90
2018-05-07T15:15:20.090Z,1.83
2018-05-07T15:17:49.134Z,1.50
2018-05-07T15:20:20.882Z,1.83
2018-05-07T15:22:49.995Z,1.90
2018-05-07T15:25:18.318Z,1.70
2018-05-07T15:27:46.769Z,1.53
2018-05-07T15:30:15.026Z,1.53
2018-05-07T15:32:44.346Z,1.80
2018-05-07T15:35:12.650Z,1.77
2018-05-07T15:37:41.094Z,1.67
2018-05-07T15:40:09.392Z,1.70
2018-05-07T15:42:38.463Z,2.10
2018-05-07T15:45:07.272Z,1.43
2018-05-07T15:47:35.878Z,1.83
2018-05-07T15:50:04.841Z,2.27
2018-05-07T15:52:33.970Z,2.07
2018-05-07T15:55:02.829Z,1.90
2018-05-07T15:57:31.122Z,1.40
2018-05-07T15:59:59.968Z,1.80
2018-05-07T16:02:28.278Z,2.07
2018-05-07T16:04:56.651Z,1.80
2018-05-07T16:07:25.742Z,1.80
2018-05-07T16:09:54.155Z,1.90
2018-05-07T16:12:22.767Z,1.70
2018-05-07T16:14:52.209Z,2.93
2018-05-07T16:17:21.214Z,2.00
2018-05-07T16:19:49.615Z,1.87
2018-05-07T16:22:18.326Z,1.77
2018-05-07T16:24:48.063Z,1.93
2018-05-07T16:27:17.113Z,2.40
2018-05-07T16:29:45.475Z,2.87
2018-05-07T16:32:13.759Z,2.10
2018-05-07T16:34:42.063Z,2.67
2018-05-07T16:37:10.815Z,3.30
2018-05-07T16:39:39.071Z,2.90
2018-05-07T16:42:07.879Z,3.47
2018-05-07T16:44:36.350Z,5.70
2018-05-07T16:47:04.745Z,4.30
2018-05-07T16:49:33.040Z,2.53
2018-05-07T16:52:02.205Z,2.70
2018-05-07T16:54:30.825Z,1.90
2018-05-07T16:56:59.806Z,2.10
2018-05-07T16:59:29.460Z,2.27
2018-05-07T17:01:59.731Z,1.83
2018-05-07T17:04:28.475Z,2.60
2018-05-07T17:06:58.060Z,2.53
2018-05-07T17:09:26.820Z,2.10
2018-05-07T17:11:55.193Z,2.20
2018-05-07T17:14:24.142Z,2.00
2018-05-07T17:16:53.999Z,2.67
2018-05-07T17:19:23.803Z,2.43
2018-05-07T17:21:52.119Z,2.43
2018-05-07T17:24:20.471Z,2.90
2018-05-07T17:26:49.885Z,2.23
2018-05-07T17:29:18.166Z,2.67
2018-05-07T17:31:46.567Z,2.93
2018-05-07T17:34:14.893Z,4.00
2018-05-07T17:36:44.556Z,2.70
2018-05-07T17:39:12.939Z,2.73
2018-05-07T17:41:41.974Z,3.00
2018-05-07T17:44:28.970Z,2.90
2018-05-07T17:47:15.776Z,2.43
2018-05-07T17:49:44.581Z,2.87
2018-05-07T17:52:14.370Z,2.50
2018-05-07T17:54:42.746Z,2.40
2018-05-07T17:57:11.029Z,2.40
2018-05-07T17:59:39.431Z,2.83
2018-05-07T18:02:08.519Z,3.20
2018-05-07T18:04:39.219Z,2.53
2018-05-07T18:07:08.314Z,2.97
2018-05-07T18:09:36.618Z,2.73
2018-05-07T18:12:04.917Z,2.30
2018-05-07T18:14:35.044Z,2.30
2018-05-07T18:17:04.950Z,2.40
2018-05-07T18:19:34.002Z,2.50
2018-05-07T18:22:02.294Z,3.07
2018-05-07T18:24:31.442Z,2.40
2018-05-07T18:27:00.507Z,2.83
2018-05-07T18:29:29.128Z,3.43
2018-05-07T18:31:57.779Z,2.33
2018-05-07T18:34:26.063Z,2.23
2018-05-07T18:36:55.476Z,2.90
2018-05-07T18:39:24.554Z,2.60
2018-05-07T18:41:52.935Z,3.07
2018-05-07T18:44:21.236Z,2.43
2018-05-07T18:46:50.585Z,2.60
2018-05-07T18:49:19.697Z,2.63
2018-05-07T18:51:49.066Z,2.70
2018-05-07T18:54:17.351Z,2.50
2018-05-07T18:56:48.966Z,2.77
2018-05-07T18:59:18.775Z,2.70
2018-05-07T19:01:48.143Z,2.40
2018-05-07T19:04:17.911Z,2.63
2018-05-07T19:06:46.195Z,2.47
2018-05-07T19:09:15.216Z,3.07
2018-05-07T19:11:44.179Z,2.60
2018-05-07T19:14:12.633Z,2.63
2018-05-07T19:16:42.406Z,2.90
2018-05-07T19:19:11.086Z,2.57
2018-05-07T19:21:39.866Z,2.67
2018-05-07T19:24:08.545Z,2.50
2018-05-07T19:26:38.046Z,2.83
2018-05-07T19:29:07.319Z,2.67
2018-05-07T19:31:36.465Z,3.60
2018-05-07T19:34:05.587Z,3.10
2018-05-07T19:36:35.464Z,3.67
2018-05-07T19:39:04.512Z,3.53
2018-05-07T19:41:34.806Z,3.40
2018-05-07T19:44:03.832Z,2.60
2018-05-07T19:46:33.520Z,3.70
2018-05-07T19:49:03.418Z,3.00
2018-05-07T19:51:33.003Z,3.20
2018-05-07T19:54:02.768Z,3.27
2018-05-07T19:56:31.363Z,3.40
2018-05-07T19:59:01.095Z,3.77
2018-05-07T20:01:30.755Z,3.80
2018-05-07T20:03:59.968Z,3.30
2018-05-07T20:06:29.245Z,3.37
2018-05-07T20:08:58.319Z,2.90
2018-05-07T20:11:28.962Z,3.60
2018-05-07T20:13:57.975Z,3.77
2018-05-07T20:16:27.600Z,3.90
2018-05-07T20:18:55.893Z,3.50
2018-05-07T20:21:24.199Z,3.97
2018-05-07T20:23:54.190Z,3.40
2018-05-07T20:26:22.971Z,3.40
2018-05-07T20:28:51.938Z,4.37
2018-05-07T20:31:20.178Z,3.33
2018-05-07T20:33:49.816Z,3.90
2018-05-07T20:36:18.116Z,4.07
2018-05-07T20:38:47.222Z,4.00
2018-05-07T20:41:15.684Z,3.83
2018-05-07T20:43:44.064Z,3.90
2018-05-07T20:46:12.950Z,3.83
2018-05-07T20:48:41.360Z,3.53
2018-05-07T20:51:10.088Z,3.37
2018-05-07T20:53:39.123Z,3.87
2018-05-07T20:56:07.610Z,4.23
2018-05-07T20:58:36.491Z,4.03
2018-05-07T21:01:05.793Z,3.83
2018-05-07T21:03:35.183Z,3.57
2018-05-07T21:06:04.010Z,3.80
2018-05-07T21:08:32.633Z,3.50
2018-05-07T21:11:02.109Z,4.00
2018-05-07T21:13:31.312Z,4.10
2018-05-07T21:16:00.148Z,4.30
2018-05-07T21:18:29.099Z,4.03
2018-05-07T21:20:57.359Z,4.30
2018-05-07T21:23:25.654Z,4.87
2018-05-07T21:25:54.733Z,4.57
2018-05-07T21:28:23.010Z,4.40
2018-05-07T21:30:52.548Z,4.30
2018-05-07T21:33:21.611Z,4.10
2018-05-07T21:35:49.911Z,4.37
2018-05-07T21:38:18.184Z,4.20
2018-05-07T21:40:46.497Z,4.63
2018-05-07T21:43:14.777Z,4.80
2018-05-07T21:45:44.245Z,3.90
2018-05-07T21:48:13.320Z,4.80
2018-05-07T21:50:41.710Z,4.33
2018-05-07T21:53:10.294Z,4.47
2018-05-07T21:55:39.214Z,4.40
2018-05-07T21:58:08.280Z,4.90
2018-05-07T22:00:36.568Z,6.00
2018-05-07T22:03:04.874Z,4.23
2018-05-07T22:05:34.025Z,4.57
2018-05-07T22:08:03.101Z,5.57
2018-05-07T22:10:31.584Z,5.17
2018-05-07T22:12:59.974Z,6.00
2018-05-07T22:15:28.327Z,4.90
2018-05-07T22:17:56.567Z,5.00
2018-05-07T22:20:25.127Z,5.73
2018-05-07T22:22:53.419Z,4.70
2018-05-07T22:25:22.174Z,5.97
2018-05-07T22:27:51.072Z,5.53
2018-05-07T22:30:19.579Z,6.10
2018-05-07T22:32:48.487Z,5.80
2018-05-07T22:35:17.187Z,4.97
2018-05-07T22:37:46.247Z,4.70
2018-05-07T22:40:14.541Z,5.70
2018-05-07T22:42:42.872Z,4.90
2018-05-07T22:45:11.487Z,5.60
2018-05-07T22:47:39.857Z,5.13
2018-05-07T22:50:08.994Z,4.47
2018-05-07T22:52:39.270Z,4.67
2018-05-07T22:55:22.452Z,5.73
2018-05-07T22:57:53.199Z,5.07
2018-05-07T23:00:23.226Z,4.37
2018-05-07T23:02:52.046Z,5.03
2018-05-07T23:05:21.280Z,5.53
2018-05-07T23:07:49.577Z,6.07
2018-05-07T23:10:19.506Z,5.33
2018-05-07T23:12:48.582Z,4.73
2018-05-07T23:15:18.447Z,5.00
2018-05-07T23:17:46.727Z,4.97
2018-05-07T23:20:14.986Z,4.40
2018-05-07T23:22:44.054Z,5.10
2018-05-07T23:25:13.121Z,5.00
2018-05-07T23:27:41.537Z,4.83
2018-05-07T23:30:11.330Z,5.67
2018-05-07T23:32:42.553Z,4.47
2018-05-07T23:35:10.857Z,6.27
2018-05-07T23:37:39.672Z,4.47
2018-05-07T23:40:08.799Z,6.47
2018-05-07T23:42:37.178Z,5.13
2018-05-07T23:45:05.553Z,5.40
2018-05-07T23:47:33.859Z,5.80
2018-05-07T23:50:02.276Z,4.80
2018-05-07T23:52:32.082Z,6.13
2018-05-07T23:55:00.491Z,4.77
2018-05-07T23:57:28.833Z,4.90
2018-05-07T23:59:57.336Z,5.17
